Time;durP1;ratioP1;P1;durP2;ratioP2;P2;SDS_P1;SDS_P2;PMS_P1;PMS_P2;Temp;Humidity;BMP_temperature;BMP_pressure;BME280_temperature;BME280_humidity;BME280_pressure;Samples;Min_cycle;Max_cycle;Signal;HPM_P1;HPM_P2
2022/11/01 00:02:22;;;;;;;10.38;4.10;;;;;;;4.73;61.01;100529.70;1697939;84;21192;-76
2022/11/01 00:05:26;;;;;;;17.90;4.17;;;;;;;4.70;61.05;100531.32;1698034;84;21205;-77
2022/11/01 00:08:34;;;;;;;9.15;3.33;;;;;;;4.56;61.32;100535.72;1697281;84;21239;-77
2022/11/01 00:11:40;;;;;;;10.80;4.10;;;;;;;4.64;61.30;100532.36;1682942;84;21973;-76
2022/11/01 00:14:47;;;;;;;10.28;4.20;;;;;;;4.64;61.25;100532.36;1695829;84;21197;-77
2022/11/01 00:17:54;;;;;;;13.28;4.22;;;;;;;4.60;61.25;100535.83;1695733;84;21208;-77
2022/11/01 00:20:59;;;;;;;8.25;3.27;;;;;;;4.62;61.24;100528.44;1694428;84;21267;-77
2022/11/01 00:24:05;;;;;;;9.98;3.40;;;;;;;4.62;61.18;100532.50;1695416;84;21223;-76
2022/11/01 00:27:06;;;;;;;12.13;3.83;;;;;;;4.63;61.01;100530.16;1698223;84;21210;-76
2022/11/01 00:29:58;;;;;;;8.58;3.85;;;;;;;4.67;60.90;100528.05;1698383;84;21200;-76
2022/11/01 00:33:05;;;;;;;10.82;3.90;;;;;;;4.60;60.97;100524.98;1698343;84;21761;-76
2022/11/01 00:36:10;;;;;;;7.62;3.70;;;;;;;4.61;61.06;100529.41;1698223;84;21255;-77
2022/11/01 00:39:19;;;;;;;16.15;3.72;;;;;;;4.66;61.03;100530.36;1697233;84;21251;-76
2022/11/01 00:42:26;;;;;;;11.30;3.50;;;;;;;4.71;60.91;100534.92;1696965;84;21259;-76
2022/11/01 00:45:33;;;;;;;8.10;3.62;;;;;;;4.72;60.97;100539.34;1699754;83;21196;-76
2022/11/01 00:48:37;;;;;;;9.73;3.60;;;;;;;4.67;61.07;100531.61;1719936;83;21200;-77
2022/11/01 00:51:43;;;;;;;9.10;3.60;;;;;;;4.63;61.08;100532.86;1718161;83;21200;-76
2022/11/01 00:54:50;;;;;;;12.90;3.58;;;;;;;4.62;61.04;100529.80;1717456;83;21818;-77
2022/11/01 00:57:57;;;;;;;8.35;3.42;;;;;;;4.58;61.09;100526.98;1717335;83;21235;-76
2022/11/01 01:01:03;;;;;;;7.22;3.22;;;;;;;4.56;61.19;100537.08;1716957;83;21766;-77
2022/11/01 01:04:09;;;;;;;7.12;3.22;;;;;;;4.56;61.28;100534.36;1718306;83;21192;-77
2022/11/01 01:07:16;;;;;;;10.25;4.35;;;;;;;4.59;61.23;100541.74;1718384;83;21186;-78
2022/11/01 01:10:22;;;;;;;12.07;4.03;;;;;;;4.57;61.42;100540.17;1717089;83;21216;-76
2022/11/01 01:13:29;;;;;;;14.63;4.15;;;;;;;4.53;61.65;100541.42;1716975;83;21215;-77
2022/11/01 01:16:35;;;;;;;7.92;3.72;;;;;;;4.59;61.56;100540.89;1718402;83;21240;-77
2022/11/01 01:19:42;;;;;;;11.65;4.05;;;;;;;4.58;61.59;100535.11;1718387;83;21228;-76
2022/11/01 01:22:48;;;;;;;11.25;4.00;;;;;;;4.59;61.52;100525.98;1717495;83;21272;-76
2022/11/01 01:25:54;;;;;;;7.95;4.20;;;;;;;4.58;61.56;100536.47;1716919;83;21806;-76
2022/11/01 01:29:00;;;;;;;12.70;4.53;;;;;;;4.56;61.53;100530.30;1718295;83;22475;-77
2022/11/01 01:32:06;;;;;;;7.92;4.05;;;;;;;4.54;61.54;100539.07;1718035;83;21750;-77
2022/11/01 01:35:13;;;;;;;12.03;4.55;;;;;;;4.50;61.61;100537.11;1718278;83;21177;-76
2022/11/01 01:38:19;;;;;;;10.55;3.83;;;;;;;4.54;61.48;100536.36;1717036;83;21510;-76
2022/11/01 01:45:22;;;;;;;8.38;4.00;;;;;;;4.42;61.56;100535.55;1717764;83;21236;-77
2022/11/01 01:48:29;;;;;;;19.10;4.50;;;;;;;4.39;61.63;100539.04;1664222;86;21207;-77
2022/11/01 01:51:36;;;;;;;10.30;4.12;;;;;;;4.38;61.62;100535.48;1672331;85;21815;-77
2022/11/01 01:54:43;;;;;;;12.15;4.95;;;;;;;4.39;61.55;100536.33;1672060;86;21205;-77
2022/11/01 01:57:49;;;;;;;9.45;4.25;;;;;;;4.39;61.64;100543.96;1672094;86;21201;-77
2022/11/01 02:00:54;;;;;;;9.68;3.80;;;;;;;4.34;61.76;100540.28;1671234;86;21216;-78
2022/11/01 02:04:01;;;;;;;13.75;4.35;;;;;;;4.30;61.88;100538.83;1670848;86;21291;-77
2022/11/01 02:07:07;;;;;;;11.68;4.62;;;;;;;4.32;61.79;100526.00;1672038;86;21283;-77
2022/11/01 02:10:15;;;;;;;9.13;4.50;;;;;;;4.34;61.73;100534.02;1668828;86;21240;-76
2022/11/01 02:13:23;;;;;;;12.23;4.90;;;;;;;4.35;61.68;100533.88;1668117;86;21188;-77
2022/11/01 02:16:53;;;;;;;10.23;4.17;;;;;;;4.36;61.73;100534.23;1668203;86;21383;-76
2022/11/01 02:20:16;;;;;;;8.23;4.55;;;;;;;4.36;61.71;100527.95;1668746;86;21339;-77
2022/11/01 02:23:50;;;;;;;12.88;4.67;;;;;;;4.35;61.70;100539.29;1668012;86;21279;-77
2022/11/01 02:27:21;;;;;;;12.55;5.30;;;;;;;4.31;61.82;100535.62;1646693;86;21220;-77
2022/11/01 02:30:29;;;;;;;11.28;4.60;;;;;;;4.29;61.87;100533.55;1667552;86;21204;-77
2022/11/01 02:33:57;;;;;;;9.80;4.92;;;;;;;4.31;61.89;100531.56;1668267;86;21216;-77
2022/11/01 02:37:20;;;;;;;10.78;4.42;;;;;;;4.38;61.65;100535.97;1668643;86;21799;-77
2022/11/01 02:40:35;;;;;;;16.45;4.78;;;;;;;4.32;61.73;100535.98;1668637;86;21208;-77
2022/11/01 02:43:54;;;;;;;10.32;4.83;;;;;;;4.27;61.71;100529.59;1667989;86;21248;-77
2022/11/01 02:47:02;;;;;;;8.65;4.78;;;;;;;4.26;61.80;100544.13;1671877;85;21271;-77
2022/11/01 02:50:11;;;;;;;10.08;4.78;;;;;;;4.30;61.63;100538.83;1688442;85;21311;-78
2022/11/01 02:53:17;;;;;;;8.45;4.45;;;;;;;4.28;61.59;100549.41;1688291;85;21208;-78
2022/11/01 02:56:23;;;;;;;7.12;4.28;;;;;;;4.28;61.63;100548.05;1688509;85;21775;-78
2022/11/01 02:59:33;;;;;;;12.75;5.17;;;;;;;4.25;61.66;100550.55;1688561;85;21204;-78
2022/11/01 03:02:48;;;;;;;11.08;3.85;;;;;;;4.28;61.66;100545.34;1687689;85;21255;-78
2022/11/01 03:06:04;;;;;;;12.28;4.53;;;;;;;4.27;61.71;100537.72;1687735;85;21248;-78
2022/11/01 03:09:16;;;;;;;7.92;4.45;;;;;;;4.32;61.67;100542.25;1688257;85;21362;-78
2022/11/01 03:12:25;;;;;;;;;;;;;;;4.30;61.72;100543.39;1691087;85;21197;-76
2022/11/01 03:15:38;;;;;;;8.53;4.20;;;;;;;4.53;61.09;100539.57;1688656;85;20225;-76
2022/11/01 03:18:50;;;;;;;11.12;4.78;;;;;;;4.58;60.97;100540.53;1689633;85;21743;-76
2022/11/01 03:22:06;;;;;;;12.65;4.20;;;;;;;4.48;61.30;100538.25;1688677;85;21200;-76
2022/11/01 03:25:39;;;;;;;13.75;4.97;;;;;;;4.57;61.15;100541.53;1686467;85;21220;-76
2022/11/01 03:28:50;;;;;;;11.53;4.47;;;;;;;4.46;61.38;100541.57;1685366;85;21957;-77
2022/11/01 03:31:57;;;;;;;12.28;4.30;;;;;;;4.44;61.60;100542.21;1734689;82;21798;-77
2022/11/01 03:35:04;;;;;;;7.12;3.52;;;;;;;4.39;61.77;100539.04;1732348;83;21797;-76
2022/11/01 03:38:14;;;;;;;9.95;4.45;;;;;;;4.48;61.38;100539.11;1733575;83;21176;-76
2022/11/01 03:41:23;;;;;;;9.38;3.67;;;;;;;4.75;60.75;100535.87;1733540;83;21183;-77
2022/11/01 03:44:30;;;;;;;8.33;3.98;;;;;;;4.78;60.46;100533.38;1733294;83;21211;-77
2022/11/01 03:47:36;;;;;;;8.58;3.95;;;;;;;4.51;61.17;100536.11;1733269;82;21794;-76
2022/11/01 03:50:40;;;;;;;9.20;4.05;;;;;;;4.44;61.55;100539.50;1707233;83;21193;-77
2022/11/01 03:53:46;;;;;;;12.18;4.58;;;;;;;4.50;61.38;100543.03;1706232;84;21475;-77
2022/11/01 03:56:53;;;;;;;9.50;4.53;;;;;;;4.60;61.00;100538.53;1704955;84;21232;-76
2022/11/01 03:59:59;;;;;;;19.82;5.65;;;;;;;4.69;60.69;100540.45;1705005;84;21189;-76
2022/11/01 04:03:05;;;;;;;13.03;5.28;;;;;;;4.69;60.70;100544.52;1702493;84;21845;-76
2022/11/01 04:06:11;;;;;;;10.63;4.85;;;;;;;4.67;60.76;100550.58;1706155;84;21312;-77
2022/11/01 04:09:17;;;;;;;8.85;4.12;;;;;;;4.54;60.99;100552.61;1707223;84;21770;-77
2022/11/01 04:12:21;;;;;;;11.38;4.55;;;;;;;4.57;61.13;100549.16;1707262;84;21169;-76
2022/11/01 04:20:31;;;;;;;8.70;4.10;;;;;;;4.66;60.72;100552.93;1705713;84;21233;-77
2022/11/01 04:21:59;;;;;;;11.15;4.95;;;;;;;4.54;61.07;100559.39;1724247;83;21197;-76
2022/11/01 04:25:05;;;;;;;9.80;4.08;;;;;;;4.67;60.83;100557.34;1719155;83;21332;-77
2022/11/01 04:28:11;;;;;;;12.05;4.90;;;;;;;4.69;60.72;100557.20;1711265;83;21195;-77
2022/11/01 04:31:17;;;;;;;8.95;4.67;;;;;;;4.77;60.50;100548.78;1696241;84;21197;-76
2022/11/01 04:34:41;;;;;;;7.53;4.00;;;;;;;4.67;60.50;100550.58;1705582;84;21276;-76
2022/11/01 04:37:30;;;;;;;7.53;4.10;;;;;;;4.87;60.22;100550.19;1706199;84;21260;-77
2022/11/01 04:40:36;;;;;;;6.67;3.77;;;;;;;4.92;59.94;100561.48;1724293;83;21193;-77
2022/11/01 06:42:10;;;;;;;16.48;5.65;;;;;;;7.50;56.47;100628.30;1714281;81;21308;-77
2022/11/01 06:45:16;;;;;;;8.15;5.10;;;;;;;7.51;56.77;100628.64;1669832;84;21193;-77
2022/11/01 06:48:22;;;;;;;16.20;5.70;;;;;;;7.57;56.30;100632.12;1704670;83;21192;-78
2022/11/01 06:51:28;;;;;;;15.40;5.42;;;;;;;7.65;56.14;100629.01;1699461;82;21167;-77
2022/11/01 06:54:36;;;;;;;10.63;5.78;;;;;;;7.78;56.06;100635.99;1697001;83;21266;-78
2022/11/01 06:57:42;;;;;;;11.78;5.35;;;;;;;7.82;55.65;100634.69;1696776;84;21195;-77
2022/11/01 07:00:49;;;;;;;18.05;5.72;;;;;;;8.02;54.85;100635.44;1695721;84;21186;-77
2022/11/01 07:03:59;;;;;;;10.30;4.80;;;;;;;8.04;54.43;100634.26;1713386;82;22139;-77
2022/11/01 07:07:04;;;;;;;10.28;4.80;;;;;;;8.20;54.72;100629.52;1691378;82;21198;-77
2022/11/01 07:10:09;;;;;;;12.88;4.60;;;;;;;8.31;54.21;100632.02;1690506;82;21184;-77
2022/11/01 07:13:20;;;;;;;9.85;4.65;;;;;;;8.32;54.62;100628.78;1700000;82;21203;-77
2022/11/01 07:16:26;;;;;;;9.63;4.87;;;;;;;8.53;53.56;100629.39;1695648;82;21178;-77
2022/11/01 07:19:33;;;;;;;9.13;4.85;;;;;;;8.58;53.19;100628.41;1693178;82;21814;-76
2022/11/01 07:22:39;;;;;;;16.00;4.55;;;;;;;8.68;52.27;100631.06;1686863;82;21197;-79
2022/11/01 07:25:46;;;;;;;9.60;4.83;;;;;;;8.87;52.50;100624.07;1691379;82;21201;-79
2022/11/01 07:28:53;;;;;;;7.20;4.25;;;;;;;8.92;52.09;100624.45;1712302;83;21155;-79
2022/11/01 07:31:58;;;;;;;7.70;4.08;;;;;;;8.75;52.98;100618.53;1748525;81;21198;-78
2022/11/01 07:35:05;;;;;;;9.03;4.20;;;;;;;9.12;52.19;100622.89;1758541;81;21170;-79
2022/11/01 07:38:11;;;;;;;8.90;4.17;;;;;;;9.11;52.44;100626.13;1747319;80;21177;-78
2022/11/01 07:41:16;;;;;;;6.05;3.12;;;;;;;9.22;51.74;100629.09;1750775;80;21356;-79
2022/11/01 07:44:22;;;;;;;11.08;4.12;;;;;;;9.33;51.24;100620.66;1758134;80;21293;-79
2022/11/01 07:47:27;;;;;;;9.30;3.90;;;;;;;9.39;51.10;100596.80;1767061;79;22345;-79
2022/11/01 07:50:34;;;;;;;8.28;3.95;;;;;;;9.47;50.81;100614.61;1761016;79;21218;-79
2022/11/01 07:53:40;;;;;;;12.85;4.90;;;;;;;9.46;50.05;100606.08;1765534;80;21204;-79
2022/11/01 07:56:46;;;;;;;8.65;3.83;;;;;;;9.46;50.54;100612.05;1760330;79;21321;-79
2022/11/01 07:59:53;;;;;;;8.18;4.67;;;;;;;9.73;49.70;100605.51;1763393;79;21188;-77
2022/11/01 08:03:09;;;;;;;9.48;4.15;;;;;;;9.82;50.10;100607.26;1696616;83;21210;-77
2022/11/01 08:06:15;;;;;;;10.53;3.58;;;;;;;10.04;49.04;100586.69;1750106;81;21176;-77
2022/11/01 08:09:21;;;;;;;11.03;3.67;;;;;;;9.74;49.34;100618.17;1751652;81;22428;-78
2022/11/01 08:12:27;;;;;;;8.03;4.08;;;;;;;9.64;49.22;100599.66;1767484;81;21187;-77
2022/11/01 08:15:33;;;;;;;7.17;3.45;;;;;;;9.89;49.22;100602.02;1719360;82;21193;-78
2022/11/01 08:18:38;;;;;;;7.00;3.75;;;;;;;10.05;49.40;100603.94;1730654;83;21215;-78
2022/11/01 08:21:45;;;;;;;6.58;3.05;;;;;;;9.91;48.76;100613.11;1701747;84;21203;-78
2022/11/01 08:24:50;;;;;;;9.00;4.05;;;;;;;10.03;48.04;100611.46;1762054;81;21580;-78
2022/11/01 08:27:56;;;;;;;9.50;3.67;;;;;;;10.13;47.48;100605.34;1763181;81;21215;-78
2022/11/01 08:31:02;;;;;;;5.35;2.80;;;;;;;10.18;47.61;100605.18;1754902;81;21164;-78
2022/11/01 08:34:08;;;;;;;10.28;4.10;;;;;;;10.25;47.65;100594.45;1766249;81;21269;-79
2022/11/01 08:37:17;;;;;;;6.85;3.37;;;;;;;10.41;47.07;100609.54;1715024;83;21268;-79
2022/11/01 08:40:23;;;;;;;8.35;3.27;;;;;;;10.32;47.25;100602.86;1718338;81;21232;-80
2022/11/01 08:43:31;;;;;;;10.68;4.30;;;;;;;10.43;47.16;100596.54;1764610;79;22228;-79
2022/11/01 08:46:41;;;;;;;7.25;3.05;;;;;;;10.45;46.36;100601.86;1754129;80;21779;-79
2022/11/01 08:49:47;;;;;;;6.03;2.92;;;;;;;10.36;45.90;100606.97;1759352;80;21141;-78
2022/11/01 08:52:53;;;;;;;4.83;2.50;;;;;;;10.52;45.46;100602.03;1757397;80;21217;-78
2022/11/01 08:56:04;;;;;;;6.42;2.70;;;;;;;10.57;44.21;100599.13;1771180;80;21766;-78
2022/11/01 08:59:09;;;;;;;5.97;2.40;;;;;;;10.55;43.14;100611.28;1746651;80;21210;-78
2022/11/01 09:02:17;;;;;;;6.42;3.60;;;;;;;10.56;43.92;100612.98;1751377;80;21185;-79
2022/11/01 09:05:23;;;;;;;6.20;2.65;;;;;;;10.52;44.15;100615.19;1703381;84;21198;-78
2022/11/01 09:08:29;;;;;;;7.05;2.85;;;;;;;10.71;44.09;100614.02;1703616;84;21813;-79
2022/11/01 09:11:36;;;;;;;5.90;2.37;;;;;;;10.83;43.61;100600.35;1689158;83;21226;-78
2022/11/01 09:14:44;;;;;;;9.98;3.37;;;;;;;10.68;43.84;100610.23;1671649;83;21203;-78
2022/11/01 09:17:50;;;;;;;7.42;2.40;;;;;;;10.62;44.19;100615.03;1699020;84;21182;-79
2022/11/01 09:21:03;;;;;;;4.55;2.55;;;;;;;10.86;44.70;100599.98;1695052;83;21175;-78
2022/11/01 09:24:10;;;;;;;6.55;2.47;;;;;;;10.85;43.52;100601.02;1703055;83;21700;-77
2022/11/01 09:27:17;;;;;;;8.45;3.12;;;;;;;10.94;44.52;100599.14;1709815;82;21264;-77
2022/11/01 09:30:23;;;;;;;5.22;2.70;;;;;;;10.91;44.09;100607.69;1688779;83;21792;-77
2022/11/01 09:33:29;;;;;;;7.17;2.50;;;;;;;11.02;43.85;100600.52;1694538;83;21542;-78
2022/11/01 09:36:29;;;;;;;4.95;2.33;;;;;;;10.97;43.44;100592.82;1693161;83;21266;-77
2022/11/01 09:39:22;;;;;;;5.12;2.27;;;;;;;11.12;43.17;100601.19;1694285;83;21718;-77
2022/11/01 09:42:22;;;;;;;8.08;2.52;;;;;;;11.21;43.40;100602.89;1694557;83;21768;-78
2022/11/01 09:45:26;;;;;;;6.90;2.10;;;;;;;11.13;43.83;100596.56;1691063;83;21760;-77
2022/11/01 09:48:34;;;;;;;8.08;2.65;;;;;;;11.31;42.93;100597.22;1681182;83;22284;-77
2022/11/01 09:51:40;;;;;;;4.92;2.35;;;;;;;11.38;42.96;100584.52;1677194;83;21237;-78
2022/11/01 09:54:46;;;;;;;5.85;2.37;;;;;;;11.22;42.57;100584.58;1701887;82;21840;-78
2022/11/01 09:58:01;;;;;;;5.28;2.62;;;;;;;11.12;43.34;100592.98;1704606;83;21244;-78
2022/11/01 10:01:17;;;;;;;9.28;2.40;;;;;;;11.31;43.31;100591.75;1672002;81;21242;-78
2022/11/01 10:05:09;;;;;;;2.85;1.67;;;;;;;11.27;42.19;100598.59;1687025;83;21269;-78
2022/11/01 10:08:27;;;;;;;3.77;2.37;;;;;;;11.14;41.77;100586.80;1687195;83;22085;-78
2022/11/01 10:11:46;;;;;;;3.60;1.95;;;;;;;11.30;41.60;100583.72;1697019;84;21166;-78
2022/11/01 10:15:00;;;;;;;3.83;1.85;;;;;;;10.85;42.92;100584.60;1689229;84;21567;-78
2022/11/01 10:18:19;;;;;;;5.90;2.22;;;;;;;10.91;43.14;100581.17;1694253;84;21166;-78
2022/11/01 10:21:25;;;;;;;3.37;1.55;;;;;;;11.39;42.53;100583.52;1695005;84;22166;-78
2022/11/01 10:24:40;;;;;;;5.55;2.17;;;;;;;11.40;42.71;100583.00;1687003;84;21132;-78
2022/11/01 10:28:09;;;;;;;4.87;1.90;;;;;;;11.57;41.49;100582.42;1696678;84;21702;-77
2022/11/01 10:31:20;;;;;;;3.92;1.55;;;;;;;11.48;41.94;100584.36;1700943;84;21195;-77
2022/11/01 10:34:34;;;;;;;3.92;2.00;;;;;;;11.35;41.81;100568.47;1697277;83;21229;-77
2022/11/01 10:37:46;;;;;;;5.87;1.90;;;;;;;11.58;41.77;100568.56;1695035;82;21820;-77
2022/11/01 10:41:02;;;;;;;4.53;1.72;;;;;;;11.88;40.20;100561.44;1695643;84;21823;-78
2022/11/01 10:44:11;;;;;;;4.42;1.70;;;;;;;12.02;40.48;100555.20;1692058;82;21214;-78
2022/11/01 10:47:22;;;;;;;4.95;1.65;;;;;;;12.17;40.09;100553.91;1698842;82;21190;-77
2022/11/01 10:50:32;;;;;;;6.25;1.72;;;;;;;12.21;39.06;100551.14;1742712;81;21226;-78
2022/11/01 10:53:44;;;;;;;3.22;1.67;;;;;;;12.63;37.89;100559.42;1762121;79;21361;-78
2022/11/01 10:56:52;;;;;;;2.62;1.25;;;;;;;12.62;36.99;100565.95;1708785;83;21201;-78
2022/11/01 10:59:58;;;;;;;4.87;2.02;;;;;;;12.50;37.76;100565.52;1711986;82;21224;-77
2022/11/01 11:03:05;;;;;;;6.65;1.98;;;;;;;12.70;38.34;100559.04;1762777;79;21283;-77
2022/11/01 11:06:18;;;;;;;4.10;1.55;;;;;;;12.61;36.92;100551.91;1766420;81;21193;-78
2022/11/01 11:09:40;;;;;;;6.55;2.35;;;;;;;12.65;37.17;100555.96;1762838;81;21176;-77
2022/11/01 11:12:46;;;;;;;9.70;2.70;;;;;;;12.62;37.97;100554.12;1761050;79;21729;-79
2022/11/01 11:15:53;;;;;;;5.58;1.82;;;;;;;12.67;38.00;100556.66;1736160;81;21761;-78
2022/11/01 11:19:20;;;;;;;4.12;2.35;;;;;;;12.73;37.91;100564.14;1690893;82;22050;-78
2022/11/01 11:22:29;;;;;;;6.12;2.22;;;;;;;12.61;38.10;100552.40;1728464;82;21155;-78
2022/11/01 11:25:43;;;;;;;3.27;1.85;;;;;;;12.84;38.36;100561.98;1711017;81;21221;-78
2022/11/01 11:28:51;;;;;;;4.83;2.20;;;;;;;12.71;38.43;100568.13;1720372;81;21196;-78
2022/11/01 11:32:03;;;;;;;5.58;2.20;;;;;;;12.61;37.65;100562.00;1695484;84;21244;-78
2022/11/01 11:35:13;;;;;;;8.00;2.50;;;;;;;12.69;37.75;100553.19;1742037;81;21228;-78
2022/11/01 11:38:20;;;;;;;9.13;3.92;;;;;;;12.68;37.62;100557.50;1738745;81;22124;-78
2022/11/01 11:41:38;;;;;;;11.18;4.03;;;;;;;12.71;37.37;100555.77;1748347;80;21724;-78
2022/11/01 11:44:46;;;;;;;3.00;1.80;;;;;;;12.82;36.25;100553.95;1715812;83;21445;-78
2022/11/01 11:47:55;;;;;;;6.30;2.22;;;;;;;12.78;37.30;100552.61;1709094;83;21238;-78
2022/11/01 11:51:09;;;;;;;2.98;1.75;;;;;;;12.89;37.27;100551.30;1679862;83;21837;-79
2022/11/01 11:54:37;;;;;;;4.05;1.50;;;;;;;12.86;36.77;100552.55;1645482;84;21310;-78
2022/11/01 11:57:44;;;;;;;4.85;2.30;;;;;;;12.93;36.11;100554.86;1704445;82;21239;-80
2022/11/01 12:00:56;;;;;;;8.00;1.60;;;;;;;12.97;36.06;100556.72;1705161;82;21282;-78
2022/11/01 12:04:20;;;;;;;5.75;1.50;;;;;;;13.09;35.84;100553.88;1705996;82;21236;-77
2022/11/01 12:07:43;;;;;;;3.55;1.60;;;;;;;12.76;36.38;100554.70;1692361;82;21220;-78
2022/11/01 12:10:53;;;;;;;6.92;2.40;;;;;;;12.61;36.83;100551.91;1698067;82;21775;-78
2022/11/01 12:14:11;;;;;;;2.90;1.60;;;;;;;12.75;35.33;100558.45;1702977;83;21169;-78
2022/11/01 12:17:37;;;;;;;4.33;1.90;;;;;;;12.73;35.35;100560.55;1697131;82;21148;-78
2022/11/01 12:20:44;;;;;;;2.95;1.50;;;;;;;12.73;35.38;100551.78;1691990;82;21795;-78
2022/11/01 12:23:49;;;;;;;3.35;1.90;;;;;;;12.64;35.60;100551.52;1697110;82;21168;-78
2022/11/01 12:26:56;;;;;;;3.55;1.72;;;;;;;12.87;35.35;100549.27;1699122;82;21225;-78
2022/11/01 12:30:16;;;;;;;3.35;1.90;;;;;;;12.85;35.51;100550.00;1696992;82;21419;-79
2022/11/01 12:33:38;;;;;;;3.60;1.85;;;;;;;12.89;35.18;100548.06;1669404;84;21302;-79
2022/11/01 12:36:59;;;;;;;4.10;1.80;;;;;;;12.87;35.63;100547.38;1664339;84;21164;-78
2022/11/01 12:40:15;;;;;;;5.10;2.10;;;;;;;12.82;35.09;100555.32;1675753;83;21220;-78
2022/11/01 12:43:28;;;;;;;6.22;1.62;;;;;;;12.92;34.33;100555.91;1669050;84;22204;-78
2022/11/01 12:46:45;;;;;;;5.95;1.62;;;;;;;12.93;34.73;100557.61;1648512;83;21232;-78
2022/11/01 12:49:58;;;;;;;3.75;1.92;;;;;;;12.85;35.33;100557.70;1703559;82;21193;-78
2022/11/01 12:53:26;;;;;;;4.05;1.50;;;;;;;12.74;34.76;100562.24;1704032;82;21734;-78
2022/11/01 12:56:32;;;;;;;6.95;2.15;;;;;;;12.75;34.04;100565.31;1702291;82;21208;-78
2022/11/01 12:59:42;;;;;;;4.45;1.82;;;;;;;12.81;34.04;100568.72;1739834;79;21205;-78
2022/11/01 13:03:02;;;;;;;4.53;1.50;;;;;;;12.82;34.48;100574.53;1744287;80;21241;-78
2022/11/01 13:06:42;;;;;;;5.17;1.45;;;;;;;12.82;34.92;100564.08;1697046;82;21208;-77
2022/11/01 13:10:14;;;;;;;4.65;1.40;;;;;;;12.75;35.27;100573.55;1658412;84;21228;-77
2022/11/01 13:13:49;;;;;;;4.55;1.57;;;;;;;12.75;36.02;100574.92;1674590;85;22379;-77
2022/11/01 13:16:59;;;;;;;6.47;1.90;;;;;;;12.73;36.42;100572.89;1688253;83;21180;-79
2022/11/01 13:20:35;;;;;;;4.55;1.90;;;;;;;12.72;36.45;100574.79;1697793;82;21212;-78
2022/11/01 13:24:20;;;;;;;5.22;2.47;;;;;;;12.71;36.91;100568.97;1700943;82;21220;-78
2022/11/01 13:27:42;;;;;;;3.63;2.00;;;;;;;12.68;36.64;100569.33;1697736;82;21938;-78
2022/11/01 13:30:45;;;;;;;3.77;1.95;;;;;;;12.76;36.54;100577.50;1697103;82;21428;-78
2022/11/01 13:33:52;;;;;;;3.85;2.27;;;;;;;12.69;36.10;100568.80;1704046;82;21187;-79
2022/11/01 13:37:37;;;;;;;6.58;2.55;;;;;;;12.65;36.01;100568.83;1692402;82;21177;-78
2022/11/01 13:41:25;;;;;;;7.50;2.70;;;;;;;12.82;35.96;100571.79;1675111;82;22068;-77
2022/11/01 13:44:38;;;;;;;8.93;2.58;;;;;;;12.56;36.54;100576.27;1686347;82;21232;-78
2022/11/01 13:48:03;;;;;;;7.08;2.27;;;;;;;12.60;36.59;100572.13;1677510;82;21209;-77
2022/11/01 13:51:44;;;;;;;4.60;2.15;;;;;;;12.52;36.91;100573.58;1701443;82;21353;-77
2022/11/01 13:54:50;;;;;;;4.50;2.42;;;;;;;12.38;37.19;100569.73;1656534;84;21270;-77
2022/11/01 13:57:55;;;;;;;6.65;3.08;;;;;;;12.21;37.25;100565.38;1726985;82;21264;-77
2022/11/01 14:01:02;;;;;;;9.60;3.47;;;;;;;12.18;37.49;100568.47;1720463;81;21216;-77
2022/11/01 14:04:27;;;;;;;13.13;2.72;;;;;;;12.15;37.64;100556.52;1720036;81;21216;-77
2022/11/01 14:07:45;;;;;;;6.95;2.47;;;;;;;12.03;37.96;100558.80;1724611;82;21226;-77
2022/11/01 14:10:55;;;;;;;2.77;1.65;;;;;;;12.00;38.31;100557.28;1723515;82;21234;-78
2022/11/01 14:14:00;;;;;;;4.25;1.90;;;;;;;11.95;38.65;100554.22;1714471;83;21218;-78
2022/11/01 14:17:30;;;;;;;8.10;2.15;;;;;;;11.83;39.11;100559.75;1729072;83;21206;-78
2022/11/01 14:20:48;;;;;;;4.62;2.25;;;;;;;11.77;39.45;100559.92;1729889;83;21194;-77
2022/11/01 14:23:54;;;;;;;3.45;1.95;;;;;;;11.72;39.82;100562.87;1729129;83;21226;-78
2022/11/01 14:27:09;;;;;;;3.95;1.90;;;;;;;11.61;40.09;100555.86;1729307;83;21516;-78
2022/11/01 14:30:31;;;;;;;3.10;1.67;;;;;;;11.58;40.22;100555.39;1729348;83;21183;-78
2022/11/01 14:33:37;;;;;;;3.50;1.80;;;;;;;11.48;40.29;100550.97;1729116;83;21329;-76
2022/11/01 14:36:49;;;;;;;14.90;2.08;;;;;;;11.41;40.51;100553.20;1728735;83;21190;-76
2022/11/01 14:40:04;;;;;;;4.92;2.58;;;;;;;11.16;40.93;100556.53;1734226;82;21175;-77
2022/11/01 14:43:31;;;;;;;5.33;2.33;;;;;;;10.99;41.30;100554.32;1730460;83;21749;-76
2022/11/01 14:46:37;;;;;;;6.87;2.27;;;;;;;10.86;41.62;100558.94;1731938;83;21214;-76
2022/11/01 14:49:49;;;;;;;5.55;2.52;;;;;;;10.88;41.67;100554.69;1731908;83;21710;-77
2022/11/01 14:53:14;;;;;;;5.35;2.37;;;;;;;10.77;41.78;100557.75;1729974;83;21365;-77
2022/11/01 14:56:29;;;;;;;5.40;2.60;;;;;;;10.52;42.17;100551.44;1731295;83;21235;-79
2022/11/01 14:59:38;;;;;;;8.38;2.85;;;;;;;10.51;42.28;100556.56;1732047;80;21171;-77
2022/11/01 15:02:44;;;;;;;9.85;4.10;;;;;;;10.41;42.59;100564.94;1773564;79;21240;-78
2022/11/01 15:05:56;;;;;;;9.90;3.77;;;;;;;10.27;42.88;100562.34;1773571;81;21200;-77
2022/11/01 15:09:06;;;;;;;9.33;3.92;;;;;;;10.20;42.98;100557.16;1774044;81;21181;-77
2022/11/01 15:12:16;;;;;;;;;;;;;;;10.12;42.94;100558.53;1776891;81;21204;-77
2022/11/01 15:15:29;;;;;;;6.10;2.98;;;;;;;10.08;43.11;100563.98;1775424;81;20377;-77
2022/11/01 15:18:35;;;;;;;7.72;3.52;;;;;;;10.15;43.02;100566.37;1775041;81;21188;-77
2022/11/01 15:21:40;;;;;;;8.20;3.37;;;;;;;10.17;42.87;100566.57;1774769;81;21185;-77
2022/11/01 15:24:46;;;;;;;7.03;3.02;;;;;;;10.18;43.01;100560.59;1774889;81;21216;-77
2022/11/01 15:27:52;;;;;;;5.55;3.05;;;;;;;10.12;43.06;100570.83;1775017;81;21235;-78
2022/11/01 15:31:08;;;;;;;7.70;2.80;;;;;;;10.07;43.05;100570.45;1775023;81;21184;-77
2022/11/01 15:34:15;;;;;;;15.72;6.45;;;;;;;10.21;42.81;100573.94;1775103;81;21192;-77
2022/11/01 15:37:32;;;;;;;10.88;5.92;;;;;;;10.20;42.91;100581.25;1775012;81;21191;-77
2022/11/01 15:40:40;;;;;;;9.63;4.85;;;;;;;10.18;43.07;100580.58;1773626;81;21795;-77
2022/11/01 15:43:46;;;;;;;7.65;3.62;;;;;;;10.14;43.15;100578.34;1775058;81;21188;-77
2022/11/01 15:46:51;;;;;;;7.75;3.92;;;;;;;10.18;43.18;100581.09;1775022;81;21759;-77
2022/11/01 15:50:05;;;;;;;8.65;4.58;;;;;;;10.09;43.40;100586.19;1774968;81;21161;-78
2022/11/01 15:53:16;;;;;;;9.48;3.77;;;;;;;10.09;43.61;100594.39;1773861;81;21224;-78
2022/11/01 15:56:26;;;;;;;6.70;3.12;;;;;;;10.07;43.95;100592.31;1774973;81;21232;-77
2022/11/01 15:59:40;;;;;;;10.78;5.00;;;;;;;9.88;44.03;100590.23;1775042;81;21740;-77
2022/11/01 16:02:52;;;;;;;39.20;20.37;;;;;;;9.87;44.10;100595.33;1772497;80;21263;-77
2022/11/01 16:06:17;;;;;;;13.93;6.10;;;;;;;9.91;43.79;100593.13;1773680;81;21203;-77
2022/11/01 16:09:35;;;;;;;12.20;6.58;;;;;;;9.79;43.78;100602.14;1757380;81;21204;-77
2022/11/01 16:12:43;;;;;;;10.82;5.30;;;;;;;10.20;43.04;100596.80;1774676;81;21296;-77
2022/11/01 16:15:49;;;;;;;14.73;6.55;;;;;;;10.12;43.01;100603.63;1773626;81;21200;-77
2022/11/01 16:18:56;;;;;;;13.13;5.72;;;;;;;10.05;43.20;100595.73;1775038;81;21215;-77
2022/11/01 16:22:02;;;;;;;13.40;6.10;;;;;;;10.04;43.19;100594.89;1774971;81;21771;-77
2022/11/01 16:25:20;;;;;;;16.62;6.22;;;;;;;10.09;43.25;100597.97;1775004;81;21252;-77
2022/11/01 16:28:32;;;;;;;11.30;4.97;;;;;;;10.06;43.45;100596.92;1774984;81;21265;-77
2022/11/01 16:31:40;;;;;;;18.32;9.73;;;;;;;9.95;43.63;100595.36;1773682;81;21320;-77
2022/11/01 16:34:45;;;;;;;19.20;8.35;;;;;;;10.14;43.42;100594.23;1774991;81;21235;-77
2022/11/01 16:37:51;;;;;;;13.28;5.95;;;;;;;10.22;43.30;100593.41;1774982;81;21327;-77
2022/11/01 16:41:03;;;;;;;9.50;4.85;;;;;;;10.04;43.76;100598.98;1774951;81;22526;-76
2022/11/01 16:44:19;;;;;;;15.85;4.67;;;;;;;9.93;43.72;100602.88;1773688;81;21188;-77
2022/11/01 16:47:25;;;;;;;15.30;5.20;;;;;;;10.06;43.43;100605.12;1773588;81;21198;-77
2022/11/01 16:50:31;;;;;;;10.50;4.65;;;;;;;9.99;43.50;100602.22;1774968;81;21196;-76
2022/11/01 16:53:37;;;;;;;11.65;5.37;;;;;;;9.85;43.70;100598.75;1773046;81;21209;-77
2022/11/01 16:56:51;;;;;;;9.40;5.15;;;;;;;9.84;43.80;100598.41;1773662;81;21201;-77